sensor_id;sensor_type;location;lat;lon;timestamp;pressure;altitude;pressure_sealevel;temperature;humidity
73085;BME280;62974;49.460;10.892;2023-03-19T00:00:48;97502.09;;;8.71;74.44
73085;BME280;62974;49.460;10.892;2023-03-19T00:03:15;97500.19;;;8.65;74.15
73085;BME280;62974;49.460;10.892;2023-03-19T00:05:49;97499.84;;;8.74;74.08
73085;BME280;62974;49.460;10.892;2023-03-19T00:08:16;97507.22;;;8.72;74.19
73085;BME280;62974;49.460;10.892;2023-03-19T00:10:45;97497.94;;;8.68;74.47
73085;BME280;62974;49.460;10.892;2023-03-19T00:13:13;97503.69;;;8.65;73.68
73085;BME280;62974;49.460;10.892;2023-03-19T00:15:40;97497.06;;;8.61;74.16
73085;BME280;62974;49.460;10.892;2023-03-19T00:18:08;97499.56;;;8.63;73.96
73085;BME280;62974;49.460;10.892;2023-03-19T00:20:35;97491.47;;;8.56;74.20
73085;BME280;62974;49.460;10.892;2023-03-19T00:23:03;97502.78;;;8.52;74.31
73085;BME280;62974;49.460;10.892;2023-03-19T00:25:31;97503.59;;;8.52;74.27
73085;BME280;62974;49.460;10.892;2023-03-19T00:28:01;97507.88;;;8.46;74.88
73085;BME280;62974;49.460;10.892;2023-03-19T00:30:28;97507.56;;;7.92;76.98
73085;BME280;62974;49.460;10.892;2023-03-19T00:32:56;97497.34;;;8.45;74.78
73085;BME280;62974;49.460;10.892;2023-03-19T00:35:24;97501.50;;;8.47;73.87
73085;BME280;62974;49.460;10.892;2023-03-19T00:37:51;97509.72;;;8.46;74.84
73085;BME280;62974;49.460;10.892;2023-03-19T00:40:20;97495.50;;;8.45;74.24
73085;BME280;62974;49.460;10.892;2023-03-19T00:42:47;97500.03;;;8.45;74.36
73085;BME280;62974;49.460;10.892;2023-03-19T00:45:16;97502.09;;;8.43;74.60
73085;BME280;62974;49.460;10.892;2023-03-19T00:47:44;97492.84;;;8.45;74.20
73085;BME280;62974;49.460;10.892;2023-03-19T00:50:11;97503.50;;;8.39;74.42
73085;BME280;62974;49.460;10.892;2023-03-19T00:52:39;97501.91;;;8.23;74.63
73085;BME280;62974;49.460;10.892;2023-03-19T00:55:07;97510.69;;;8.38;73.96
73085;BME280;62974;49.460;10.892;2023-03-19T00:57:35;97507.78;;;8.33;74.50
73085;BME280;62974;49.460;10.892;2023-03-19T01:00:03;97503.88;;;8.15;75.18
73085;BME280;62974;49.460;10.892;2023-03-19T01:02:32;97506.41;;;8.23;74.98
73085;BME280;62974;49.460;10.892;2023-03-19T01:04:59;97512.03;;;7.64;78.35
73085;BME280;62974;49.460;10.892;2023-03-19T01:07:27;97510.03;;;7.37;78.65
73085;BME280;62974;49.460;10.892;2023-03-19T01:09:54;97505.44;;;7.45;79.70
73085;BME280;62974;49.460;10.892;2023-03-19T01:12:22;97502.09;;;7.58;79.70
73085;BME280;62974;49.460;10.892;2023-03-19T01:14:49;97503.00;;;8.08;76.15
73085;BME280;62974;49.460;10.892;2023-03-19T01:17:17;97510.19;;;8.07;76.42
73085;BME280;62974;49.460;10.892;2023-03-19T01:19:45;97504.22;;;7.84;77.43
73085;BME280;62974;49.460;10.892;2023-03-19T01:22:13;97509.78;;;7.89;76.58
73085;BME280;62974;49.460;10.892;2023-03-19T01:24:42;97505.59;;;8.01;76.32
73085;BME280;62974;49.460;10.892;2023-03-19T01:27:09;97501.47;;;7.98;76.45
73085;BME280;62974;49.460;10.892;2023-03-19T01:29:37;97496.38;;;8.03;76.40
73085;BME280;62974;49.460;10.892;2023-03-19T01:32:05;97503.56;;;8.03;76.21
73085;BME280;62974;49.460;10.892;2023-03-19T01:34:32;97498.84;;;8.05;75.89
73085;BME280;62974;49.460;10.892;2023-03-19T01:37:02;97501.22;;;7.93;76.45
73085;BME280;62974;49.460;10.892;2023-03-19T01:39:29;97508.03;;;7.96;75.96
73085;BME280;62974;49.460;10.892;2023-03-19T01:42:00;97513.22;;;7.26;78.04
73085;BME280;62974;49.460;10.892;2023-03-19T01:44:29;97501.91;;;7.81;76.80
73085;BME280;62974;49.460;10.892;2023-03-19T01:46:58;97502.69;;;7.75;76.25
73085;BME280;62974;49.460;10.892;2023-03-19T01:49:28;97495.16;;;7.64;76.75
73085;BME280;62974;49.460;10.892;2023-03-19T01:51:58;97499.75;;;7.34;77.97
73085;BME280;62974;49.460;10.892;2023-03-19T01:54:29;97523.94;;;6.30;87.51
73085;BME280;62974;49.460;10.892;2023-03-19T01:57:01;97517.13;;;6.65;87.48
73085;BME280;62974;49.460;10.892;2023-03-19T01:59:34;97508.53;;;7.28;82.91
73085;BME280;62974;49.460;10.892;2023-03-19T02:02:05;97513.41;;;6.66;87.64
73085;BME280;62974;49.460;10.892;2023-03-19T02:04:37;97505.78;;;6.77;87.15
73085;BME280;62974;49.460;10.892;2023-03-19T02:07:05;97517.38;;;7.28;82.84
73085;BME280;62974;49.460;10.892;2023-03-19T02:09:35;97511.78;;;6.79;87.49
73085;BME280;62974;49.460;10.892;2023-03-19T02:12:03;97504.81;;;7.65;81.10
73085;BME280;62974;49.460;10.892;2023-03-19T02:14:31;97496.44;;;7.89;78.31
73085;BME280;62974;49.460;10.892;2023-03-19T02:16:58;97500.28;;;7.80;78.47
73085;BME280;62974;49.460;10.892;2023-03-19T02:19:30;97504.34;;;7.76;78.36
73085;BME280;62974;49.460;10.892;2023-03-19T02:22:01;97494.09;;;7.79;77.35
73085;BME280;62974;49.460;10.892;2023-03-19T02:24:32;97500.16;;;7.88;77.11
73085;BME280;62974;49.460;10.892;2023-03-19T02:27:03;97492.34;;;7.93;76.45
73085;BME280;62974;49.460;10.892;2023-03-19T02:29:33;97506.13;;;7.90;77.39
73085;BME280;62974;49.460;10.892;2023-03-19T02:32:01;97498.97;;;7.97;76.32
73085;BME280;62974;49.460;10.892;2023-03-19T02:34:34;97506.31;;;7.52;79.34
73085;BME280;62974;49.460;10.892;2023-03-19T02:37:06;97503.34;;;7.26;81.38
73085;BME280;62974;49.460;10.892;2023-03-19T02:39:40;97502.41;;;7.70;78.11
73085;BME280;62974;49.460;10.892;2023-03-19T02:42:12;97491.94;;;7.68;78.83
73085;BME280;62974;49.460;10.892;2023-03-19T02:44:41;97497.00;;;7.84;77.38
73085;BME280;62974;49.460;10.892;2023-03-19T02:47:08;97491.59;;;7.78;78.04
73085;BME280;62974;49.460;10.892;2023-03-19T02:49:36;97503.25;;;7.70;77.95
73085;BME280;62974;49.460;10.892;2023-03-19T02:52:04;97499.06;;;7.82;77.09
73085;BME280;62974;49.460;10.892;2023-03-19T02:54:31;97504.66;;;7.87;77.09
73085;BME280;62974;49.460;10.892;2023-03-19T02:56:59;97502.34;;;7.84;76.80
73085;BME280;62974;49.460;10.892;2023-03-19T02:59:27;97507.34;;;7.87;76.69
73085;BME280;62974;49.460;10.892;2023-03-19T03:01:55;97508.91;;;7.82;77.38
73085;BME280;62974;49.460;10.892;2023-03-19T03:04:23;97512.59;;;7.81;77.16
73085;BME280;62974;49.460;10.892;2023-03-19T03:06:51;97513.44;;;7.81;76.78
73085;BME280;62974;49.460;10.892;2023-03-19T03:09:19;97514.66;;;7.79;77.04
73085;BME280;62974;49.460;10.892;2023-03-19T03:11:46;97517.50;;;7.77;77.40
73085;BME280;62974;49.460;10.892;2023-03-19T03:14:14;97521.00;;;7.78;77.04
73085;BME280;62974;49.460;10.892;2023-03-19T03:16:43;97521.56;;;7.73;77.58
73085;BME280;62974;49.460;10.892;2023-03-19T03:19:10;97518.72;;;7.75;77.07
73085;BME280;62974;49.460;10.892;2023-03-19T03:21:38;97515.03;;;7.76;76.63
73085;BME280;62974;49.460;10.892;2023-03-19T03:24:07;97527.56;;;7.39;79.89
73085;BME280;62974;49.460;10.892;2023-03-19T03:26:34;97522.63;;;7.57;78.75
73085;BME280;62974;49.460;10.892;2023-03-19T03:29:04;97523.06;;;7.76;77.52
73085;BME280;62974;49.460;10.892;2023-03-19T03:31:31;97525.50;;;7.77;77.26
73085;BME280;62974;49.460;10.892;2023-03-19T03:34:01;97530.97;;;7.48;79.42
73085;BME280;62974;49.460;10.892;2023-03-19T03:36:28;97535.03;;;7.65;78.29
73085;BME280;62974;49.460;10.892;2023-03-19T03:38:56;97540.78;;;7.62;78.46
73085;BME280;62974;49.460;10.892;2023-03-19T03:41:24;97539.50;;;7.58;78.51
73085;BME280;62974;49.460;10.892;2023-03-19T03:43:51;97536.41;;;7.76;76.85
73085;BME280;62974;49.460;10.892;2023-03-19T03:46:19;97536.09;;;7.64;77.37
73085;BME280;62974;49.460;10.892;2023-03-19T03:48:46;97541.88;;;7.53;78.82
73085;BME280;62974;49.460;10.892;2023-03-19T03:51:18;97544.84;;;7.58;78.96
73085;BME280;62974;49.460;10.892;2023-03-19T03:53:45;97537.41;;;7.75;77.44
73085;BME280;62974;49.460;10.892;2023-03-19T03:56:13;97547.00;;;7.69;78.04
73085;BME280;62974;49.460;10.892;2023-03-19T03:58:40;97544.84;;;7.58;79.71
73085;BME280;62974;49.460;10.892;2023-03-19T04:01:09;97552.19;;;7.20;81.66
73085;BME280;62974;49.460;10.892;2023-03-19T04:03:40;97553.66;;;7.08;83.87
73085;BME280;62974;49.460;10.892;2023-03-19T04:06:08;97543.28;;;7.49;81.10
73085;BME280;62974;49.460;10.892;2023-03-19T04:08:41;97545.41;;;7.53;81.16
73085;BME280;62974;49.460;10.892;2023-03-19T04:11:09;97549.44;;;7.49;82.16
73085;BME280;62974;49.460;10.892;2023-03-19T04:13:37;97562.28;;;7.25;83.21
73085;BME280;62974;49.460;10.892;2023-03-19T04:16:05;97557.34;;;7.07;84.82
73085;BME280;62974;49.460;10.892;2023-03-19T04:18:33;97553.53;;;7.01;85.65
73085;BME280;62974;49.460;10.892;2023-03-19T04:21:01;97555.41;;;7.16;84.26
73085;BME280;62974;49.460;10.892;2023-03-19T04:23:29;97557.66;;;7.33;82.44
73085;BME280;62974;49.460;10.892;2023-03-19T04:25:59;97548.59;;;7.64;80.03
73085;BME280;62974;49.460;10.892;2023-03-19T04:28:27;97549.63;;;7.63;79.64
73085;BME280;62974;49.460;10.892;2023-03-19T04:30:58;97557.25;;;7.66;78.75
73085;BME280;62974;49.460;10.892;2023-03-19T04:33:25;97570.94;;;7.27;83.02
73085;BME280;62974;49.460;10.892;2023-03-19T04:35:53;97556.19;;;7.60;80.00
73085;BME280;62974;49.460;10.892;2023-03-19T04:38:22;97571.78;;;7.13;84.00
73085;BME280;62974;49.460;10.892;2023-03-19T04:40:51;97582.38;;;6.77;88.17
73085;BME280;62974;49.460;10.892;2023-03-19T04:43:20;97579.50;;;7.37;83.49
73085;BME280;62974;49.460;10.892;2023-03-19T04:45:49;97570.75;;;7.43;81.89
73085;BME280;62974;49.460;10.892;2023-03-19T04:48:17;97569.09;;;7.42;81.68
73085;BME280;62974;49.460;10.892;2023-03-19T04:50:45;97569.03;;;7.35;83.45
73085;BME280;62974;49.460;10.892;2023-03-19T04:53:17;97575.94;;;7.15;85.84
73085;BME280;62974;49.460;10.892;2023-03-19T04:55:45;97579.16;;;7.11;86.72
73085;BME280;62974;49.460;10.892;2023-03-19T04:58:13;97583.72;;;6.73;90.30
73085;BME280;62974;49.460;10.892;2023-03-19T05:00:42;97579.41;;;6.72;90.94
73085;BME280;62974;49.460;10.892;2023-03-19T05:03:12;97572.31;;;6.93;89.83
73085;BME280;62974;49.460;10.892;2023-03-19T05:05:40;97566.03;;;7.45;83.96
73085;BME280;62974;49.460;10.892;2023-03-19T05:08:08;97578.50;;;7.38;84.32
73085;BME280;62974;49.460;10.892;2023-03-19T05:10:36;97582.91;;;6.87;89.88
73085;BME280;62974;49.460;10.892;2023-03-19T05:13:04;97593.97;;;6.98;90.00
73085;BME280;62974;49.460;10.892;2023-03-19T05:15:32;97581.50;;;7.49;84.08
73085;BME280;62974;49.460;10.892;2023-03-19T05:18:01;97583.84;;;7.38;85.18
73085;BME280;62974;49.460;10.892;2023-03-19T05:20:29;97578.47;;;7.67;81.46
73085;BME280;62974;49.460;10.892;2023-03-19T05:22:56;97583.88;;;7.74;80.62
73085;BME280;62974;49.460;10.892;2023-03-19T05:25:24;97589.63;;;7.56;82.39
73085;BME280;62974;49.460;10.892;2023-03-19T05:27:52;97585.47;;;7.68;81.11
73085;BME280;62974;49.460;10.892;2023-03-19T05:30:19;97583.88;;;7.74;80.15
73085;BME280;62974;49.460;10.892;2023-03-19T05:32:48;97585.63;;;7.67;80.08
73085;BME280;62974;49.460;10.892;2023-03-19T05:35:18;97604.34;;;7.67;81.23
73085;BME280;62974;49.460;10.892;2023-03-19T05:37:45;97612.13;;;7.32;84.51
73085;BME280;62974;49.460;10.892;2023-03-19T05:40:13;97623.69;;;7.25;85.43
73085;BME280;62974;49.460;10.892;2023-03-19T05:42:41;97623.28;;;7.36;84.89
73085;BME280;62974;49.460;10.892;2023-03-19T05:45:09;97631.91;;;7.23;86.34
73085;BME280;62974;49.460;10.892;2023-03-19T05:47:37;97628.13;;;7.18;86.75
73085;BME280;62974;49.460;10.892;2023-03-19T05:50:06;97620.16;;;7.32;85.68
73085;BME280;62974;49.460;10.892;2023-03-19T05:52:35;97634.28;;;7.33;86.13
73085;BME280;62974;49.460;10.892;2023-03-19T05:55:03;97633.75;;;7.37;85.89
73085;BME280;62974;49.460;10.892;2023-03-19T05:57:31;97639.56;;;7.26;87.29
73085;BME280;62974;49.460;10.892;2023-03-19T05:59:58;97641.88;;;7.44;86.70
73085;BME280;62974;49.460;10.892;2023-03-19T06:02:26;97637.44;;;7.51;85.49
73085;BME280;62974;49.460;10.892;2023-03-19T06:04:53;97643.25;;;7.54;85.65
73085;BME280;62974;49.460;10.892;2023-03-19T06:07:21;97641.69;;;7.60;84.82
73085;BME280;62974;49.460;10.892;2023-03-19T06:09:50;97651.44;;;7.68;85.12
73085;BME280;62974;49.460;10.892;2023-03-19T06:12:17;97652.53;;;7.73;84.84
73085;BME280;62974;49.460;10.892;2023-03-19T06:14:45;97657.97;;;7.80;85.53
73085;BME280;62974;49.460;10.892;2023-03-19T06:17:13;97655.00;;;7.89;84.88
73085;BME280;62974;49.460;10.892;2023-03-19T06:19:40;97658.88;;;7.87;84.84
73085;BME280;62974;49.460;10.892;2023-03-19T06:22:08;97650.47;;;7.90;84.07
73085;BME280;62974;49.460;10.892;2023-03-19T06:24:35;97657.28;;;7.92;84.38
73085;BME280;62974;49.460;10.892;2023-03-19T06:27:04;97669.00;;;7.91;85.81
73085;BME280;62974;49.460;10.892;2023-03-19T06:29:32;97655.44;;;7.93;85.48
73085;BME280;62974;49.460;10.892;2023-03-19T06:32:00;97659.03;;;8.00;85.29
73085;BME280;62974;49.460;10.892;2023-03-19T06:34:27;97659.66;;;8.02;85.23
73085;BME280;62974;49.460;10.892;2023-03-19T06:36:55;97667.69;;;8.02;85.49
73085;BME280;62974;49.460;10.892;2023-03-19T06:39:22;97671.03;;;8.04;85.51
73085;BME280;62974;49.460;10.892;2023-03-19T06:41:50;97673.09;;;8.09;86.07
73085;BME280;62974;49.460;10.892;2023-03-19T06:44:19;97670.97;;;8.19;84.54
73085;BME280;62974;49.460;10.892;2023-03-19T06:46:46;97679.53;;;8.29;85.49
73085;BME280;62974;49.460;10.892;2023-03-19T06:49:14;97673.00;;;8.31;86.28
73085;BME280;62974;49.460;10.892;2023-03-19T06:51:41;97693.25;;;8.40;87.20
73085;BME280;62974;49.460;10.892;2023-03-19T06:54:09;97691.41;;;8.41;86.73
73085;BME280;62974;49.460;10.892;2023-03-19T06:56:36;97688.13;;;8.39;86.77
73085;BME280;62974;49.460;10.892;2023-03-19T06:59:04;97692.06;;;8.43;87.15
73085;BME280;62974;49.460;10.892;2023-03-19T07:01:33;97697.66;;;8.48;88.03
73085;BME280;62974;49.460;10.892;2023-03-19T07:04:00;97709.00;;;8.50;88.32
73085;BME280;62974;49.460;10.892;2023-03-19T07:06:28;97705.22;;;8.59;87.29
73085;BME280;62974;49.460;10.892;2023-03-19T07:08:56;97709.88;;;8.72;86.94
73085;BME280;62974;49.460;10.892;2023-03-19T07:11:23;97714.28;;;8.79;86.47
73085;BME280;62974;49.460;10.892;2023-03-19T07:13:51;97712.47;;;8.86;86.82
73085;BME280;62974;49.460;10.892;2023-03-19T07:16:19;97722.09;;;8.81;87.43
73085;BME280;62974;49.460;10.892;2023-03-19T07:18:47;97725.09;;;8.71;88.56
73085;BME280;62974;49.460;10.892;2023-03-19T07:21:15;97726.00;;;8.78;88.90
73085;BME280;62974;49.460;10.892;2023-03-19T07:23:42;97726.13;;;8.91;88.32
73085;BME280;62974;49.460;10.892;2023-03-19T07:26:12;97729.16;;;8.88;88.85
73085;BME280;62974;49.460;10.892;2023-03-19T07:28:39;97739.94;;;8.74;88.71
73085;BME280;62974;49.460;10.892;2023-03-19T07:31:07;97738.53;;;8.78;90.24
73085;BME280;62974;49.460;10.892;2023-03-19T07:33:34;97738.16;;;8.81;90.69
73085;BME280;62974;49.460;10.892;2023-03-19T07:36:04;97740.66;;;8.82;90.53
73085;BME280;62974;49.460;10.892;2023-03-19T07:38:31;97745.78;;;8.84;90.89
73085;BME280;62974;49.460;10.892;2023-03-19T07:40:59;97744.34;;;8.81;91.07
73085;BME280;62974;49.460;10.892;2023-03-19T07:43:28;97744.72;;;8.78;91.47
73085;BME280;62974;49.460;10.892;2023-03-19T07:45:56;97752.56;;;8.80;92.53
73085;BME280;62974;49.460;10.892;2023-03-19T07:48:23;97748.03;;;8.80;92.51
73085;BME280;62974;49.460;10.892;2023-03-19T07:50:51;97757.84;;;8.73;92.36
73085;BME280;62974;49.460;10.892;2023-03-19T07:53:20;97759.25;;;8.69;93.87
73085;BME280;62974;49.460;10.892;2023-03-19T07:55:48;97773.41;;;8.63;94.01
73085;BME280;62974;49.460;10.892;2023-03-19T07:58:15;97762.03;;;8.61;95.52
73085;BME280;62974;49.460;10.892;2023-03-19T08:00:43;97774.13;;;8.57;95.59
73085;BME280;62974;49.460;10.892;2023-03-19T08:03:11;97777.81;;;8.56;97.02
73085;BME280;62974;49.460;10.892;2023-03-19T08:05:39;97777.38;;;8.53;97.82
73085;BME280;62974;49.460;10.892;2023-03-19T08:08:06;97787.00;;;8.47;98.58
73085;BME280;62974;49.460;10.892;2023-03-19T08:10:35;97788.78;;;8.40;100.00
73085;BME280;62974;49.460;10.892;2023-03-19T08:13:04;97787.75;;;8.41;100.00
73085;BME280;62974;49.460;10.892;2023-03-19T08:15:32;97787.28;;;8.37;100.00
73085;BME280;62974;49.460;10.892;2023-03-19T08:18:02;97794.94;;;8.40;100.00
73085;BME280;62974;49.460;10.892;2023-03-19T08:20:31;97803.34;;;8.37;100.00
73085;BME280;62974;49.460;10.892;2023-03-19T08:22:59;97802.72;;;8.35;100.00
73085;BME280;62974;49.460;10.892;2023-03-19T08:25:26;97807.56;;;8.46;100.00
73085;BME280;62974;49.460;10.892;2023-03-19T08:27:59;97809.03;;;8.49;100.00
73085;BME280;62974;49.460;10.892;2023-03-19T08:30:26;97807.50;;;8.40;100.00
73085;BME280;62974;49.460;10.892;2023-03-19T08:32:54;97818.56;;;8.37;100.00
73085;BME280;62974;49.460;10.892;2023-03-19T08:35:22;97826.09;;;8.48;100.00
73085;BME280;62974;49.460;10.892;2023-03-19T08:37:52;97827.03;;;8.40;100.00
73085;BME280;62974;49.460;10.892;2023-03-19T08:40:20;97834.25;;;8.40;100.00
73085;BME280;62974;49.460;10.892;2023-03-19T08:42:47;97822.97;;;8.44;100.00
73085;BME280;62974;49.460;10.892;2023-03-19T08:45:16;97834.63;;;8.52;100.00
73085;BME280;62974;49.460;10.892;2023-03-19T08:47:44;97835.25;;;8.54;100.00
73085;BME280;62974;49.460;10.892;2023-03-19T08:50:12;97843.69;;;8.36;100.00
73085;BME280;62974;49.460;10.892;2023-03-19T08:52:39;97836.09;;;8.39;100.00
73085;BME280;62974;49.460;10.892;2023-03-19T08:55:08;97846.53;;;8.34;100.00
73085;BME280;62974;49.460;10.892;2023-03-19T08:57:36;97843.00;;;8.34;100.00
73085;BME280;62974;49.460;10.892;2023-03-19T09:00:04;97843.94;;;8.41;100.00
73085;BME280;62974;49.460;10.892;2023-03-19T09:02:34;97854.38;;;8.36;100.00
73085;BME280;62974;49.460;10.892;2023-03-19T09:05:02;97845.97;;;8.39;100.00
73085;BME280;62974;49.460;10.892;2023-03-19T09:07:30;97848.34;;;8.63;100.00
73085;BME280;62974;49.460;10.892;2023-03-19T09:09:57;97850.66;;;8.37;100.00
73085;BME280;62974;49.460;10.892;2023-03-19T09:12:25;97856.09;;;8.58;100.00
73085;BME280;62974;49.460;10.892;2023-03-19T09:14:52;97849.97;;;8.64;100.00
73085;BME280;62974;49.460;10.892;2023-03-19T09:17:19;97862.66;;;8.56;100.00
73085;BME280;62974;49.460;10.892;2023-03-19T09:19:48;97864.94;;;8.73;100.00
73085;BME280;62974;49.460;10.892;2023-03-19T09:22:16;97858.69;;;8.66;100.00
73085;BME280;62974;49.460;10.892;2023-03-19T09:24:43;97848.03;;;8.73;100.00
73085;BME280;62974;49.460;10.892;2023-03-19T09:27:11;97853.28;;;8.81;100.00
73085;BME280;62974;49.460;10.892;2023-03-19T09:29:38;97853.72;;;8.84;100.00
73085;BME280;62974;49.460;10.892;2023-03-19T09:32:06;97851.81;;;8.78;100.00
73085;BME280;62974;49.460;10.892;2023-03-19T09:34:34;97861.41;;;8.87;100.00
73085;BME280;62974;49.460;10.892;2023-03-19T09:37:03;97854.47;;;8.93;100.00
73085;BME280;62974;49.460;10.892;2023-03-19T09:39:30;97866.78;;;8.73;100.00
73085;BME280;62974;49.460;10.892;2023-03-19T09:42:08;97872.50;;;8.70;100.00
73085;BME280;62974;49.460;10.892;2023-03-19T09:44:39;97879.25;;;8.66;100.00
73085;BME280;62974;49.460;10.892;2023-03-19T09:47:21;97869.19;;;8.82;100.00
73085;BME280;62974;49.460;10.892;2023-03-19T09:49:51;97871.47;;;8.85;100.00
73085;BME280;62974;49.460;10.892;2023-03-19T09:52:34;97872.31;;;8.86;100.00
73085;BME280;62974;49.460;10.892;2023-03-19T09:55:11;97879.41;;;8.93;100.00
73085;BME280;62974;49.460;10.892;2023-03-19T09:57:41;97869.34;;;8.95;100.00
73085;BME280;62974;49.460;10.892;2023-03-19T10:00:19;97866.06;;;9.00;100.00
73085;BME280;62974;49.460;10.892;2023-03-19T10:02:52;97867.56;;;8.88;100.00
73085;BME280;62974;49.460;10.892;2023-03-19T10:05:26;97868.50;;;8.95;100.00
73085;BME280;62974;49.460;10.892;2023-03-19T10:08:20;97876.34;;;8.96;100.00
73085;BME280;62974;49.460;10.892;2023-03-19T10:11:04;97871.31;;;9.08;100.00
73085;BME280;62974;49.460;10.892;2023-03-19T10:13:48;97868.47;;;9.10;100.00
73085;BME280;62974;49.460;10.892;2023-03-19T10:16:20;97864.19;;;9.15;100.00
73085;BME280;62974;49.460;10.892;2023-03-19T10:18:50;97863.28;;;9.08;100.00
73085;BME280;62974;49.460;10.892;2023-03-19T10:21:21;97868.34;;;9.18;100.00
73085;BME280;62974;49.460;10.892;2023-03-19T10:23:56;97861.97;;;9.19;100.00
73085;BME280;62974;49.460;10.892;2023-03-19T10:26:28;97866.16;;;9.28;100.00
73085;BME280;62974;49.460;10.892;2023-03-19T10:29:08;97852.19;;;9.32;100.00
73085;BME280;62974;49.460;10.892;2023-03-19T10:31:43;97857.31;;;9.27;100.00
73085;BME280;62974;49.460;10.892;2023-03-19T10:34:22;97862.34;;;9.37;100.00
73085;BME280;62974;49.460;10.892;2023-03-19T10:36:57;97856.69;;;9.47;100.00
73085;BME280;62974;49.460;10.892;2023-03-19T10:39:27;97856.56;;;9.55;100.00
73085;BME280;62974;49.460;10.892;2023-03-19T10:42:02;97861.25;;;9.53;100.00
73085;BME280;62974;49.460;10.892;2023-03-19T10:44:35;97852.34;;;9.46;100.00
73085;BME280;62974;49.460;10.892;2023-03-19T10:47:09;97859.81;;;9.50;100.00
73085;BME280;62974;49.460;10.892;2023-03-19T10:49:37;97850.66;;;9.66;100.00
73085;BME280;62974;49.460;10.892;2023-03-19T10:52:08;97843.84;;;9.63;100.00
73085;BME280;62974;49.460;10.892;2023-03-19T10:54:44;97848.16;;;9.64;100.00
73085;BME280;62974;49.460;10.892;2023-03-19T10:57:21;97848.59;;;9.68;100.00
73085;BME280;62974;49.460;10.892;2023-03-19T10:59:49;97846.22;;;9.79;100.00
73085;BME280;62974;49.460;10.892;2023-03-19T11:02:19;97844.47;;;9.93;100.00
73085;BME280;62974;49.460;10.892;2023-03-19T11:04:48;97844.47;;;9.93;100.00
73085;BME280;62974;49.460;10.892;2023-03-19T11:07:18;97837.84;;;9.89;100.00
73085;BME280;62974;49.460;10.892;2023-03-19T11:09:49;97829.03;;;9.95;100.00
73085;BME280;62974;49.460;10.892;2023-03-19T11:12:20;97837.78;;;10.10;100.00
73085;BME280;62974;49.460;10.892;2023-03-19T11:14:51;97831.88;;;10.15;100.00
73085;BME280;62974;49.460;10.892;2023-03-19T11:17:21;97829.47;;;10.26;100.00
73085;BME280;62974;49.460;10.892;2023-03-19T11:19:51;97829.56;;;10.46;100.00
73085;BME280;62974;49.460;10.892;2023-03-19T11:22:22;97829.59;;;10.53;100.00
73085;BME280;62974;49.460;10.892;2023-03-19T11:24:53;97822.03;;;10.69;100.00
73085;BME280;62974;49.460;10.892;2023-03-19T11:27:29;97827.41;;;10.76;100.00
73085;BME280;62974;49.460;10.892;2023-03-19T11:29:57;97827.63;;;10.74;100.00
73085;BME280;62974;49.460;10.892;2023-03-19T11:32:41;97808.00;;;10.74;100.00
73085;BME280;62974;49.460;10.892;2023-03-19T11:35:16;97810.34;;;10.90;100.00
73085;BME280;62974;49.460;10.892;2023-03-19T11:37:53;97794.03;;;11.05;100.00
73085;BME280;62974;49.460;10.892;2023-03-19T11:40:37;97788.28;;;11.47;100.00
73085;BME280;62974;49.460;10.892;2023-03-19T11:43:25;97790.13;;;11.20;100.00
73085;BME280;62974;49.460;10.892;2023-03-19T11:46:00;97781.38;;;10.92;100.00
73085;BME280;62974;49.460;10.892;2023-03-19T11:48:41;97770.94;;;11.30;100.00
73085;BME280;62974;49.460;10.892;2023-03-19T11:51:18;97770.72;;;11.18;99.98
73085;BME280;62974;49.460;10.892;2023-03-19T11:53:58;97759.97;;;11.18;100.00
73085;BME280;62974;49.460;10.892;2023-03-19T11:56:31;97758.94;;;11.46;100.00
73085;BME280;62974;49.460;10.892;2023-03-19T11:59:25;97752.69;;;11.39;100.00
73085;BME280;62974;49.460;10.892;2023-03-19T12:02:31;97748.78;;;11.41;100.00
73085;BME280;62974;49.460;10.892;2023-03-19T12:05:13;97750.63;;;11.27;97.32
73085;BME280;62974;49.460;10.892;2023-03-19T12:07:51;97745.69;;;11.57;98.17
73085;BME280;62974;49.460;10.892;2023-03-19T12:10:28;97760.56;;;11.66;99.89
73085;BME280;62974;49.460;10.892;2023-03-19T12:13:19;97755.19;;;11.60;96.38
73085;BME280;62974;49.460;10.892;2023-03-19T12:15:58;97756.03;;;11.54;94.80
73085;BME280;62974;49.460;10.892;2023-03-19T12:18:43;97747.13;;;11.47;95.16
73085;BME280;62974;49.460;10.892;2023-03-19T12:21:18;97741.94;;;11.52;92.44
73085;BME280;62974;49.460;10.892;2023-03-19T12:23:58;97739.66;;;11.88;89.63
73085;BME280;62974;49.460;10.892;2023-03-19T12:26:34;97753.03;;;12.28;94.07
73085;BME280;62974;49.460;10.892;2023-03-19T12:29:15;97751.88;;;11.84;92.83
73085;BME280;62974;49.460;10.892;2023-03-19T12:31:58;97752.94;;;11.90;91.53
73085;BME280;62974;49.460;10.892;2023-03-19T12:34:33;97749.19;;;11.97;88.97
73085;BME280;62974;49.460;10.892;2023-03-19T12:37:12;97744.75;;;12.29;87.59
73085;BME280;62974;49.460;10.892;2023-03-19T12:39:49;97750.41;;;11.95;88.21
73085;BME280;62974;49.460;10.892;2023-03-19T12:42:20;97745.03;;;11.95;88.84
73085;BME280;62974;49.460;10.892;2023-03-19T12:44:52;97740.47;;;12.02;89.28
73085;BME280;62974;49.460;10.892;2023-03-19T12:47:24;97730.41;;;12.42;87.36
73085;BME280;62974;49.460;10.892;2023-03-19T12:49:55;97727.53;;;12.30;85.80
73085;BME280;62974;49.460;10.892;2023-03-19T12:52:26;97725.28;;;12.20;85.32
73085;BME280;62974;49.460;10.892;2023-03-19T12:54:58;97724.22;;;12.28;85.62
73085;BME280;62974;49.460;10.892;2023-03-19T12:57:30;97729.94;;;11.87;89.11
73085;BME280;62974;49.460;10.892;2023-03-19T13:00:06;97722.63;;;12.07;89.33
73085;BME280;62974;49.460;10.892;2023-03-19T13:02:40;97724.78;;;11.72;90.32
73085;BME280;62974;49.460;10.892;2023-03-19T13:05:16;97719.78;;;11.83;87.39
73085;BME280;62974;49.460;10.892;2023-03-19T13:07:51;97716.91;;;11.71;88.74
73085;BME280;62974;49.460;10.892;2023-03-19T13:10:21;97717.94;;;11.83;90.47